Time;durP1;ratioP1;P1;durP2;ratioP2;P2;SDS_P1;SDS_P2;PMS_P1;PMS_P2;Temp;Humidity;BMP_temperature;BMP_pressure;BME280_temperature;BME280_humidity;BME280_pressure;Samples;Min_cycle;Max_cycle;Signal;HPM_P1;HPM_P2
2021/10/18 00:02:15;;;;;;;15.70;8.65;;;9.40;99.90;;;;;;5055879;28;20298;-74
2021/10/18 00:04:42;;;;;;;16.33;8.50;;;9.40;99.90;;;;;;5056200;28;20207;-75
2021/10/18 00:07:08;;;;;;;16.38;8.23;;;9.30;99.90;;;;;;5056523;28;20231;-75
2021/10/18 00:09:35;;;;;;;17.00;8.52;;;9.20;99.90;;;;;;5056552;28;20650;-75
2021/10/18 00:12:02;;;;;;;14.65;8.35;;;9.20;99.90;;;;;;5056079;28;20673;-75
2021/10/18 00:14:29;;;;;;;16.98;8.57;;;9.20;99.90;;;;;;5055973;28;20206;-75
2021/10/18 00:16:57;;;;;;;16.65;8.25;;;9.10;99.90;;;;;;5055481;28;20657;-75
2021/10/18 00:19:24;;;;;;;16.05;8.60;;;9.10;99.90;;;;;;5055996;28;20223;-74
2021/10/18 00:21:51;;;;;;;15.52;8.68;;;9.20;99.90;;;;;;5055467;28;20298;-74
2021/10/18 00:24:18;;;;;;;17.98;8.48;;;9.20;99.90;;;;;;5055541;28;20211;-75
2021/10/18 00:26:45;;;;;;;14.38;8.07;;;9.10;99.90;;;;;;5055629;28;20310;-75
2021/10/18 00:29:11;;;;;;;16.63;8.57;;;9.10;99.90;;;;;;5055439;28;20593;-74
2021/10/18 00:31:38;;;;;;;15.23;8.38;;;9.20;99.90;;;;;;5055478;28;20241;-75
2021/10/18 00:34:06;;;;;;;17.20;8.10;;;9.20;99.90;;;;;;5055920;28;20638;-75
2021/10/18 00:36:33;;;;;;;17.27;7.75;;;9.20;99.90;;;;;;5055585;28;20713;-75
2021/10/18 00:39:00;;;;;;;14.43;7.65;;;9.30;99.90;;;;;;5055779;28;20768;-74
2021/10/18 00:41:27;;;;;;;15.32;7.70;;;9.30;99.90;;;;;;5055901;28;20221;-75
2021/10/18 00:43:56;;;;;;;12.80;7.53;;;9.40;99.90;;;;;;5055891;28;20203;-75
2021/10/18 00:46:24;;;;;;;14.18;8.07;;;9.30;99.90;;;;;;5055695;28;20203;-75
2021/10/18 00:48:52;;;;;;;18.23;8.25;;;9.40;99.90;;;;;;5055250;28;20255;-74
2021/10/18 00:51:23;;;;;;;15.75;7.32;;;9.40;99.90;;;;;;5055253;28;20689;-74
2021/10/18 00:53:52;;;;;;;16.05;8.45;;;9.30;99.90;;;;;;5055419;28;20295;-75
2021/10/18 00:56:19;;;;;;;13.63;8.13;;;9.30;99.90;;;;;;5055135;28;20682;-75
2021/10/18 00:58:48;;;;;;;17.02;8.15;;;9.20;99.90;;;;;;5055099;28;20610;-75
2021/10/18 01:01:15;;;;;;;14.48;7.75;;;9.10;99.90;;;;;;5054608;28;20207;-75
2021/10/18 01:03:42;;;;;;;13.80;8.18;;;9.10;99.90;;;;;;5054860;28;20294;-75
2021/10/18 01:06:10;;;;;;;18.98;9.25;;;9.00;99.90;;;;;;5054729;28;20203;-75
2021/10/18 01:08:39;;;;;;;17.20;9.27;;;9.10;99.90;;;;;;5054849;28;20226;-75
2021/10/18 01:11:06;;;;;;;16.90;9.35;;;9.10;99.90;;;;;;5054581;28;20261;-76
2021/10/18 01:13:34;;;;;;;12.82;7.28;;;9.10;99.90;;;;;;5055230;28;20212;-75
2021/10/18 01:16:01;;;;;;;18.35;8.77;;;9.20;99.90;;;;;;5055127;28;20211;-75
2021/10/18 01:18:29;;;;;;;16.58;8.35;;;9.30;99.90;;;;;;5054936;28;20226;-75
2021/10/18 01:20:57;;;;;;;17.80;8.90;;;9.30;99.90;;;;;;5055175;28;20199;-75
2021/10/18 01:23:24;;;;;;;14.98;8.82;;;9.30;99.90;;;;;;5054404;28;20203;-74
2021/10/18 01:25:51;;;;;;;15.88;8.65;;;9.30;99.90;;;;;;5054521;28;20237;-75
2021/10/18 01:28:17;;;;;;;14.93;8.48;;;9.20;99.90;;;;;;5053939;28;20314;-75
2021/10/18 01:30:44;;;;;;;15.50;8.52;;;9.30;99.90;;;;;;5054855;28;20639;-75
2021/10/18 01:33:11;;;;;;;11.85;7.60;;;9.40;99.90;;;;;;5054307;28;20684;-74
2021/10/18 01:35:39;;;;;;;16.45;8.13;;;9.30;99.90;;;;;;5054837;28;20341;-75
2021/10/18 01:38:07;;;;;;;16.13;8.13;;;9.20;99.90;;;;;;5054557;28;20310;-74
2021/10/18 01:40:34;;;;;;;17.10;8.40;;;9.10;99.90;;;;;;5054487;28;20199;-75
2021/10/18 01:43:01;;;;;;;16.60;8.60;;;9.20;99.90;;;;;;5054415;28;20203;-74
2021/10/18 01:45:27;;;;;;;15.57;8.15;;;9.30;99.90;;;;;;5054693;28;20290;-75
2021/10/18 01:47:54;;;;;;;14.82;7.50;;;9.30;99.90;;;;;;5054511;28;20203;-75
2021/10/18 01:50:25;;;;;;;14.52;7.78;;;9.30;99.90;;;;;;5054529;28;20581;-75
2021/10/18 01:52:53;;;;;;;16.27;7.53;;;9.30;99.90;;;;;;5054193;28;20299;-74
2021/10/18 01:55:22;;;;;;;18.55;8.35;;;9.20;99.90;;;;;;5054384;28;20298;-74
2021/10/18 01:57:51;;;;;;;17.70;8.27;;;9.10;99.90;;;;;;5054246;28;20214;-75
2021/10/18 02:00:18;;;;;;;16.08;8.27;;;9.10;99.90;;;;;;5054256;28;20253;-75
2021/10/18 02:02:46;;;;;;;13.50;8.10;;;9.00;99.90;;;;;;5053944;28;20199;-75
2021/10/18 02:05:13;;;;;;;19.70;7.88;;;8.90;99.90;;;;;;5054687;28;20203;-74
2021/10/18 02:07:42;;;;;;;13.80;7.57;;;8.90;99.90;;;;;;5054417;28;20210;-74
2021/10/18 02:10:09;;;;;;;14.82;8.45;;;8.80;99.90;;;;;;5054441;28;20297;-75
2021/10/18 02:12:37;;;;;;;18.48;8.68;;;8.80;99.90;;;;;;5053964;28;20290;-75
2021/10/18 02:15:05;;;;;;;15.82;8.00;;;8.70;99.90;;;;;;5054043;28;20205;-74
2021/10/18 02:17:31;;;;;;;17.45;9.27;;;8.70;99.90;;;;;;5053445;28;20661;-75
2021/10/18 02:19:58;;;;;;;20.98;8.68;;;8.60;99.90;;;;;;5053771;28;20219;-74
2021/10/18 02:22:25;;;;;;;17.83;8.48;;;8.60;99.90;;;;;;5053898;28;20572;-74
2021/10/18 02:24:52;;;;;;;17.67;7.82;;;8.60;99.90;;;;;;5054005;28;20221;-75
2021/10/18 02:27:19;;;;;;;15.35;7.47;;;8.60;99.90;;;;;;5054138;28;20333;-74
2021/10/18 02:29:47;;;;;;;13.10;7.80;;;8.70;99.90;;;;;;5053694;28;20314;-75
2021/10/18 02:32:14;;;;;;;15.25;7.53;;;8.80;99.90;;;;;;5053811;28;20760;-74
2021/10/18 02:34:41;;;;;;;13.85;8.55;;;8.90;99.90;;;;;;5053916;28;20290;-74
2021/10/18 02:37:08;;;;;;;14.32;7.13;;;9.00;99.90;;;;;;5053652;28;20290;-75
2021/10/18 02:39:34;;;;;;;15.23;7.88;;;9.10;99.90;;;;;;5056117;28;20229;-74
2021/10/18 02:42:01;;;;;;;12.85;8.45;;;9.10;99.90;;;;;;5057776;28;20203;-74
2021/10/18 02:44:28;;;;;;;13.98;6.75;;;9.00;99.90;;;;;;5058026;28;20268;-74
2021/10/18 02:46:56;;;;;;;14.90;7.93;;;9.00;99.90;;;;;;5058461;28;20206;-75
2021/10/18 02:49:23;;;;;;;15.35;7.70;;;9.00;99.90;;;;;;5058095;28;20231;-75
2021/10/18 02:51:50;;;;;;;16.67;8.48;;;9.00;99.90;;;;;;5058013;28;20639;-74
2021/10/18 02:54:17;;;;;;;15.43;6.68;;;9.00;99.90;;;;;;5058032;28;20254;-75
2021/10/18 02:56:44;;;;;;;13.40;8.07;;;9.00;99.90;;;;;;5057774;28;20207;-74
2021/10/18 02:59:11;;;;;;;16.05;7.70;;;9.00;99.90;;;;;;5057699;28;20739;-75
2021/10/18 03:01:38;;;;;;;19.35;8.32;;;9.10;99.90;;;;;;5057660;28;20199;-74
2021/10/18 03:04:06;;;;;;;15.00;7.55;;;9.10;99.90;;;;;;5057715;28;20294;-74
2021/10/18 03:06:33;;;;;;;9.52;5.68;;;9.10;99.90;;;;;;5057903;28;20203;-75
2021/10/18 03:09:00;;;;;;;10.85;6.25;;;9.00;99.90;;;;;;5057576;28;20310;-75
2021/10/18 03:11:27;;;;;;;12.05;7.32;;;8.90;99.90;;;;;;5057568;28;20229;-74
2021/10/18 03:13:54;;;;;;;13.20;7.07;;;8.90;99.90;;;;;;5057220;28;20302;-75
2021/10/18 03:16:21;;;;;;;14.00;6.50;;;9.00;99.90;;;;;;5057148;28;20299;-74
2021/10/18 03:18:47;;;;;;;12.95;6.78;;;9.10;99.90;;;;;;5057041;28;20310;-74
2021/10/18 03:21:16;;;;;;;10.02;6.20;;;9.10;99.90;;;;;;5056816;28;20267;-74
2021/10/18 03:23:43;;;;;;;12.48;7.32;;;9.10;99.90;;;;;;5057092;28;20309;-75
2021/10/18 03:26:10;;;;;;;16.60;7.40;;;9.10;99.90;;;;;;5057529;28;20206;-75
2021/10/18 03:28:37;;;;;;;16.45;7.18;;;9.10;99.90;;;;;;5057237;28;20223;-75
2021/10/18 03:31:04;;;;;;;16.98;7.93;;;9.10;99.90;;;;;;5056915;28;20227;-75
2021/10/18 03:33:34;;;;;;;12.35;6.55;;;9.00;99.90;;;;;;5057166;28;20290;-74
2021/10/18 03:36:01;;;;;;;14.20;7.45;;;9.00;99.90;;;;;;5056990;28;20203;-74
2021/10/18 03:38:29;;;;;;;12.57;6.90;;;9.00;99.90;;;;;;5056385;28;20314;-75
2021/10/18 03:40:56;;;;;;;15.48;7.53;;;9.10;99.90;;;;;;5056739;28;20604;-75
2021/10/18 03:43:23;;;;;;;16.10;7.63;;;9.10;99.90;;;;;;5056775;28;20203;-75
2021/10/18 03:45:50;;;;;;;13.75;7.47;;;9.10;99.90;;;;;;5056644;28;20214;-75
2021/10/18 03:48:17;;;;;;;11.75;6.95;;;9.10;99.90;;;;;;5056690;28;20580;-74
2021/10/18 03:50:44;;;;;;;13.75;8.32;;;9.10;99.90;;;;;;5056401;28;20222;-74
2021/10/18 03:53:11;;;;;;;16.30;8.00;;;9.00;99.90;;;;;;5056487;28;20233;-74
2021/10/18 03:55:39;;;;;;;14.70;7.72;;;9.00;99.90;;;;;;5056500;28;20211;-75
2021/10/18 03:58:07;;;;;;;19.05;8.65;;;9.00;99.90;;;;;;5056507;28;20715;-74
2021/10/18 04:00:34;;;;;;;14.32;7.75;;;9.00;99.90;;;;;;5056067;28;20290;-74
2021/10/18 04:03:01;;;;;;;17.48;8.73;;;8.90;99.90;;;;;;5055834;28;20618;-75
2021/10/18 04:05:27;;;;;;;12.50;7.13;;;8.90;99.90;;;;;;5055856;28;20203;-75
2021/10/18 04:07:54;;;;;;;17.45;8.65;;;8.90;99.90;;;;;;5055636;28;20672;-75
2021/10/18 04:10:21;;;;;;;17.67;8.98;;;9.00;99.90;;;;;;5056193;28;20314;-74
2021/10/18 04:12:49;;;;;;;19.88;8.18;;;9.10;99.90;;;;;;5055786;28;20203;-74
2021/10/18 04:15:16;;;;;;;14.93;8.40;;;9.20;99.90;;;;;;5056126;28;20199;-74
2021/10/18 04:17:43;;;;;;;15.65;9.75;;;9.30;99.90;;;;;;5055693;28;20566;-75
2021/10/18 04:20:10;;;;;;;20.33;8.88;;;9.50;99.90;;;;;;5055893;28;20290;-74
2021/10/18 04:22:37;;;;;;;18.23;10.18;;;9.60;99.90;;;;;;5055379;28;20684;-75
2021/10/18 04:25:06;;;;;;;18.75;8.40;;;9.50;99.90;;;;;;5055480;28;20211;-75
2021/10/18 04:27:33;;;;;;;17.50;9.30;;;9.60;99.90;;;;;;5055914;28;20213;-75
2021/10/18 04:30:01;;;;;;;14.10;8.73;;;9.50;99.90;;;;;;5055638;28;20314;-74
2021/10/18 04:32:28;;;;;;;18.83;9.38;;;9.40;99.90;;;;;;5055232;28;20294;-75
2021/10/18 04:34:54;;;;;;;19.40;9.90;;;9.40;99.90;;;;;;5055515;28;20204;-74
2021/10/18 04:37:21;;;;;;;20.85;10.52;;;9.50;99.90;;;;;;5055623;28;20290;-74
2021/10/18 04:39:48;;;;;;;20.10;9.40;;;9.50;99.90;;;;;;5055222;28;20773;-74
2021/10/18 04:42:15;;;;;;;24.35;10.18;;;9.60;99.90;;;;;;5055502;28;20206;-74
2021/10/18 04:44:42;;;;;;;24.13;9.65;;;9.70;99.90;;;;;;5055390;28;20204;-75
2021/10/18 04:47:10;;;;;;;21.02;10.57;;;9.80;99.90;;;;;;5055676;28;20209;-74
2021/10/18 04:49:37;;;;;;;17.85;9.27;;;9.80;99.90;;;;;;5056581;28;20219;-75
2021/10/18 04:52:04;;;;;;;19.45;10.60;;;9.80;99.90;;;;;;5056172;28;20314;-74
2021/10/18 04:54:32;;;;;;;21.85;9.77;;;9.80;99.90;;;;;;5056304;28;20214;-74
2021/10/18 04:56:58;;;;;;;18.20;9.05;;;9.80;99.90;;;;;;5056296;28;20199;-75
2021/10/18 04:59:25;;;;;;;21.98;9.95;;;9.80;99.90;;;;;;5056013;28;20314;-74
2021/10/18 05:01:52;;;;;;;16.35;9.20;;;9.80;99.90;;;;;;5056122;28;20295;-74
2021/10/18 05:04:20;;;;;;;23.50;9.88;;;9.80;99.90;;;;;;5055693;28;20234;-75
2021/10/18 05:06:47;;;;;;;19.48;9.48;;;9.70;99.90;;;;;;5055672;28;20235;-74
2021/10/18 05:09:14;;;;;;;22.15;10.75;;;9.50;99.90;;;;;;5055379;28;20227;-74
2021/10/18 05:11:41;;;;;;;20.02;9.00;;;9.50;99.90;;;;;;5055337;28;20314;-75
2021/10/18 05:14:08;;;;;;;18.33;8.93;;;9.40;99.90;;;;;;5055185;28;20203;-75
2021/10/18 05:16:34;;;;;;;16.80;9.35;;;9.40;99.90;;;;;;5055217;28;20294;-75
2021/10/18 05:19:01;;;;;;;20.00;10.50;;;9.40;99.90;;;;;;5055625;28;20219;-75
2021/10/18 05:21:30;;;;;;;21.00;9.25;;;9.50;99.90;;;;;;5055029;28;20302;-74
2021/10/18 05:23:56;;;;;;;16.38;9.43;;;9.50;99.90;;;;;;5055404;28;20707;-75
2021/10/18 05:26:23;;;;;;;21.40;11.45;;;9.50;99.90;;;;;;5055111;28;20233;-75
2021/10/18 05:28:50;;;;;;;25.13;11.68;;;9.50;99.90;;;;;;5055394;28;20228;-75
2021/10/18 05:31:17;;;;;;;18.58;9.25;;;9.60;99.90;;;;;;5054373;28;20230;-74
2021/10/18 05:33:44;;;;;;;24.40;9.80;;;9.50;99.90;;;;;;5055064;28;20313;-75
2021/10/18 05:36:11;;;;;;;21.48;10.27;;;9.50;99.90;;;;;;5055127;28;20299;-75
2021/10/18 05:38:39;;;;;;;17.55;9.50;;;9.50;99.90;;;;;;5054648;28;20648;-75
2021/10/18 05:41:07;;;;;;;20.42;10.43;;;9.50;99.90;;;;;;5054367;28;20683;-74
2021/10/18 05:43:34;;;;;;;22.33;9.63;;;9.50;99.90;;;;;;5054878;28;20564;-75
2021/10/18 05:46:01;;;;;;;25.92;9.95;;;9.50;99.90;;;;;;5054870;28;20295;-74
2021/10/18 05:48:28;;;;;;;23.73;10.35;;;9.50;99.90;;;;;;5054627;28;20255;-75
2021/10/18 05:50:54;;;;;;;22.85;11.50;;;9.50;99.90;;;;;;5054297;28;20223;-75
2021/10/18 05:53:21;;;;;;;19.13;9.02;;;9.50;99.90;;;;;;5054487;28;20219;-76
2021/10/18 05:55:49;;;;;;;17.33;9.52;;;9.40;99.90;;;;;;5054629;28;20205;-75
2021/10/18 05:58:16;;;;;;;24.05;9.68;;;9.30;99.90;;;;;;5054479;28;20227;-74
2021/10/18 06:00:45;;;;;;;19.13;9.52;;;9.30;99.90;;;;;;5054480;28;20211;-74
2021/10/18 06:03:14;;;;;;;27.45;9.90;;;9.30;99.90;;;;;;5054284;28;20298;-75
2021/10/18 06:05:44;;;;;;;22.05;10.20;;;9.30;99.90;;;;;;5054460;28;20254;-75
2021/10/18 06:08:12;;;;;;;17.70;9.00;;;9.30;99.90;;;;;;5054842;28;20246;-75
2021/10/18 06:10:39;;;;;;;22.98;11.30;;;9.30;99.90;;;;;;5054637;28;20211;-75
2021/10/18 06:13:08;;;;;;;21.17;10.23;;;9.30;99.90;;;;;;5054123;28;20294;-75
2021/10/18 06:15:36;;;;;;;24.50;9.85;;;9.40;99.90;;;;;;5054089;28;20293;-75
2021/10/18 06:18:11;;;;;;;22.15;10.88;;;9.40;99.90;;;;;;5053968;28;20220;-75
2021/10/18 06:20:39;;;;;;;23.65;10.82;;;9.30;99.90;;;;;;5053689;28;20210;-75
2021/10/18 06:23:06;;;;;;;20.63;10.40;;;9.30;99.90;;;;;;5053498;28;20204;-75
2021/10/18 06:25:33;;;;;;;18.02;9.57;;;9.40;99.90;;;;;;5053790;28;20591;-75
2021/10/18 06:28:00;;;;;;;25.42;11.35;;;9.40;99.90;;;;;;5054217;28;20294;-75
2021/10/18 06:30:29;;;;;;;22.88;10.45;;;9.50;99.90;;;;;;5054743;28;20234;-74
2021/10/18 06:32:55;;;;;;;26.70;10.40;;;9.50;99.90;;;;;;5054178;28;20234;-75
2021/10/18 06:35:23;;;;;;;22.42;10.57;;;9.60;99.90;;;;;;5054569;28;20294;-75
2021/10/18 06:37:50;;;;;;;25.73;11.27;;;9.70;99.90;;;;;;5054888;28;20290;-74
2021/10/18 06:40:17;;;;;;;24.80;10.13;;;9.80;99.90;;;;;;5054523;28;20213;-75
2021/10/18 06:42:44;;;;;;;22.63;10.73;;;9.80;99.90;;;;;;5054595;28;20223;-75
2021/10/18 06:45:11;;;;;;;20.25;10.52;;;9.80;99.90;;;;;;5054298;28;20658;-75
2021/10/18 06:47:40;;;;;;;24.38;11.45;;;9.80;99.90;;;;;;5054001;28;20219;-75
2021/10/18 06:50:08;;;;;;;21.05;11.02;;;9.80;99.90;;;;;;5054191;28;20204;-75
2021/10/18 06:52:37;;;;;;;30.00;11.30;;;9.70;99.90;;;;;;5053883;28;20227;-75
2021/10/18 06:55:07;;;;;;;23.30;10.77;;;9.70;99.90;;;;;;5055222;28;20204;-75
2021/10/18 06:57:34;;;;;;;17.70;10.10;;;9.80;99.90;;;;;;5054916;28;20237;-75
2021/10/18 07:00:01;;;;;;;18.58;10.07;;;9.90;99.90;;;;;;5054736;28;20262;-74
2021/10/18 07:02:28;;;;;;;19.25;9.43;;;10.00;99.90;;;;;;5054400;28;20282;-75
2021/10/18 07:04:56;;;;;;;23.73;10.80;;;10.10;99.90;;;;;;5054309;28;20207;-75
2021/10/18 07:07:26;;;;;;;23.33;10.60;;;10.20;99.90;;;;;;5054785;28;20200;-75
2021/10/18 07:09:59;;;;;;;18.55;9.95;;;10.20;99.90;;;;;;5054849;28;20232;-75
2021/10/18 07:12:26;;;;;;;14.60;10.45;;;10.20;99.90;;;;;;5054708;28;20280;-75
2021/10/18 07:14:54;;;;;;;16.35;9.85;;;10.20;99.90;;;;;;5054512;28;20208;-75
2021/10/18 07:17:22;;;;;;;22.60;10.35;;;10.30;99.90;;;;;;5054369;28;20294;-75
2021/10/18 07:19:49;;;;;;;19.40;10.27;;;10.40;99.90;;;;;;5053912;28;20224;-75
2021/10/18 07:22:18;;;;;;;20.58;10.55;;;10.50;99.90;;;;;;5054116;28;20208;-74
2021/10/18 07:24:45;;;;;;;17.02;9.38;;;10.50;99.90;;;;;;5054441;28;20219;-75
2021/10/18 07:27:12;;;;;;;19.02;10.13;;;10.50;99.90;;;;;;5057188;28;20289;-75
2021/10/18 07:29:39;;;;;;;22.42;11.15;;;10.50;99.90;;;;;;5057578;28;20314;-75
2021/10/18 07:32:07;;;;;;;16.02;8.32;;;10.50;99.90;;;;;;5056884;28;20313;-75
2021/10/18 07:34:34;;;;;;;17.92;9.80;;;10.60;99.90;;;;;;5056968;28;20565;-76
2021/10/18 07:37:01;;;;;;;23.48;10.98;;;10.80;99.90;;;;;;5057103;28;20299;-75
2021/10/18 07:39:30;;;;;;;19.40;10.38;;;10.90;99.90;;;;;;5056496;28;20238;-75
2021/10/18 07:41:59;;;;;;;20.98;9.65;;;11.00;99.90;;;;;;5056438;28;20286;-74
2021/10/18 07:44:28;;;;;;;19.20;10.13;;;11.10;99.90;;;;;;5056550;28;20231;-75
2021/10/18 07:46:59;;;;;;;20.27;10.75;;;11.10;99.90;;;;;;5056853;28;20639;-75
2021/10/18 07:49:28;;;;;;;22.33;11.98;;;11.10;99.90;;;;;;5056622;28;20228;-75
2021/10/18 07:51:55;;;;;;;19.05;10.13;;;11.20;99.90;;;;;;5056299;28;20848;-74
2021/10/18 07:54:23;;;;;;;17.85;10.07;;;11.10;99.90;;;;;;5056626;28;20294;-75
2021/10/18 07:56:52;;;;;;;15.80;9.98;;;11.20;99.90;;;;;;5056530;28;20204;-75
2021/10/18 07:59:19;;;;;;;17.73;9.48;;;11.10;99.90;;;;;;5056311;28;20581;-74
2021/10/18 08:01:46;;;;;;;17.15;9.52;;;11.20;99.90;;;;;;5056084;28;20293;-75
2021/10/18 08:04:12;;;;;;;16.92;10.27;;;11.20;99.90;;;;;;5056047;28;20298;-75
2021/10/18 08:06:39;;;;;;;18.88;11.05;;;11.30;99.90;;;;;;5056024;28;20633;-75
2021/10/18 08:09:08;;;;;;;17.70;10.07;;;11.30;99.90;;;;;;5056171;28;20644;-75
2021/10/18 08:11:34;;;;;;;16.80;9.15;;;11.30;99.90;;;;;;5056032;28;20583;-75
2021/10/18 08:14:03;;;;;;;16.70;8.90;;;11.20;99.90;;;;;;5056255;28;20207;-75
2021/10/18 08:16:29;;;;;;;18.30;10.20;;;11.20;99.90;;;;;;5055987;28;20199;-75
2021/10/18 08:18:56;;;;;;;16.75;9.45;;;11.30;99.90;;;;;;5055694;28;20334;-75
2021/10/18 08:21:23;;;;;;;19.98;9.93;;;11.30;99.90;;;;;;5055736;28;20686;-74
2021/10/18 08:23:50;;;;;;;14.90;9.27;;;11.30;99.90;;;;;;5055468;28;20209;-75
2021/10/18 08:26:17;;;;;;;16.35;10.13;;;11.30;99.90;;;;;;5055609;28;20294;-75
2021/10/18 08:28:44;;;;;;;19.05;10.27;;;11.30;99.90;;;;;;5055847;28;20334;-75
2021/10/18 08:31:12;;;;;;;22.65;11.95;;;11.30;99.90;;;;;;5056062;28;20215;-75
2021/10/18 08:33:39;;;;;;;16.98;9.60;;;11.20;99.90;;;;;;5055866;28;20299;-75
2021/10/18 08:36:06;;;;;;;15.10;9.20;;;11.10;99.90;;;;;;5056280;28;20207;-75
2021/10/18 08:38:49;;;;;;;18.85;10.18;;;11.10;99.90;;;;;;5055763;28;20241;-74
2021/10/18 08:41:21;;;;;;;20.85;11.32;;;11.10;99.90;;;;;;5055780;28;20214;-75
2021/10/18 08:46:33;;;;;;;21.13;10.60;;;11.20;99.90;;;;;;5055922;28;20680;-74
2021/10/18 08:49:00;;;;;;;19.95;10.95;;;11.30;99.90;;;;;;5055872;28;20239;-75
2021/10/18 08:51:27;;;;;;;14.07;9.07;;;11.30;99.90;;;;;;5055352;28;20204;-74
2021/10/18 08:53:55;;;;;;;21.33;10.35;;;11.30;99.90;;;;;;5055459;28;20298;-74
2021/10/18 08:56:22;;;;;;;19.17;10.35;;;11.30;99.90;;;;;;5055322;28;20209;-75
2021/10/18 08:58:49;;;;;;;20.33;11.13;;;11.30;99.90;;;;;;5055209;28;20219;-75
2021/10/18 09:01:16;;;;;;;21.17;12.32;;;11.30;99.90;;;;;;5054999;28;20673;-74
2021/10/18 09:03:44;;;;;;;21.50;10.68;;;11.40;99.90;;;;;;5055297;28;20199;-75
2021/10/18 09:06:15;;;;;;;20.95;11.60;;;11.40;99.90;;;;;;5055085;28;20624;-75
2021/10/18 09:08:44;;;;;;;18.88;11.70;;;11.30;99.90;;;;;;5054757;28;20234;-75
2021/10/18 09:11:13;;;;;;;19.45;11.73;;;11.30;99.90;;;;;;5055417;28;20199;-75
2021/10/18 09:13:46;;;;;;;20.55;11.02;;;11.30;99.90;;;;;;5055027;28;20229;-74
2021/10/18 09:16:25;;;;;;;23.33;12.52;;;11.40;99.90;;;;;;5054974;28;20200;-75
2021/10/18 09:19:06;;;;;;;21.85;12.18;;;11.50;99.90;;;;;;5054474;28;20223;-75
2021/10/18 09:21:35;;;;;;;20.73;12.55;;;11.60;99.90;;;;;;5054787;28;20207;-74
2021/10/18 09:24:02;;;;;;;24.83;13.15;;;11.70;99.90;;;;;;5054403;28;20305;-74
2021/10/18 09:26:31;;;;;;;21.48;11.60;;;11.70;99.90;;;;;;5054700;28;20246;-75
2021/10/18 09:29:04;;;;;;;19.63;11.77;;;11.80;99.90;;;;;;5054537;28;20227;-75
2021/10/18 09:31:31;;;;;;;19.65;12.10;;;11.90;99.90;;;;;;5054146;28;20203;-74
2021/10/18 09:34:06;;;;;;;23.05;12.27;;;11.90;99.90;;;;;;5054345;28;20609;-75
2021/10/18 09:36:35;;;;;;;20.70;12.13;;;12.00;99.90;;;;;;5054357;28;20234;-75
2021/10/18 09:39:21;;;;;;;19.85;11.10;;;11.90;99.90;;;;;;5053971;28;20263;-75
2021/10/18 09:41:58;;;;;;;18.10;11.27;;;11.80;99.90;;;;;;5054063;28;20213;-75
2021/10/18 09:44:46;;;;;;;19.88;11.30;;;11.80;99.90;;;;;;5054226;28;20203;-75
2021/10/18 10:52:55;;;;;;;19.55;11.20;;;12.30;99.90;;;;;;5038266;28;20233;-75
2021/10/18 10:55:27;;;;;;;19.48;10.55;;;12.50;99.90;;;;;;5053329;28;20243;-75
2021/10/18 10:57:57;;;;;;;20.33;11.77;;;12.60;99.90;;;;;;5053195;28;20200;-74
2021/10/18 11:00:36;;;;;;;17.27;11.20;;;12.70;99.90;;;;;;5053293;28;20756;-75
2021/10/18 11:03:38;;;;;;;17.98;10.77;;;12.90;99.90;;;;;;5056860;28;20202;-75
2021/10/18 11:06:07;;;;;;;15.35;9.75;;;13.10;99.90;;;;;;5057347;28;20683;-75
2021/10/18 11:08:36;;;;;;;14.60;9.35;;;13.20;99.90;;;;;;5057201;28;20223;-75
2021/10/18 11:11:16;;;;;;;14.95;9.88;;;13.40;99.90;;;;;;5056881;28;20203;-74
2021/10/18 11:13:51;;;;;;;17.52;10.75;;;13.60;99.90;;;;;;5056789;28;20223;-75
2021/10/18 11:16:20;;;;;;;14.85;10.32;;;13.60;99.90;;;;;;5057056;28;20285;-75
2021/10/18 11:18:49;;;;;;;19.92;10.55;;;13.60;99.90;;;;;;5056833;28;20664;-75
2021/10/18 11:21:22;;;;;;;16.48;10.35;;;13.70;99.90;;;;;;5056939;28;20377;-75
2021/10/18 11:24:02;;;;;;;17.40;10.65;;;13.70;99.90;;;;;;5056740;28;20543;-76
2021/10/18 11:26:34;;;;;;;15.88;10.82;;;13.80;99.90;;;;;;5056864;28;20200;-75
2021/10/18 11:29:03;;;;;;;16.45;10.68;;;13.80;99.90;;;;;;5056479;28;20227;-75
2021/10/18 11:31:33;;;;;;;17.70;11.02;;;13.60;99.90;;;;;;5056220;28;20209;-75
2021/10/18 11:34:12;;;;;;;17.80;11.82;;;13.30;99.90;;;;;;5056506;28;20582;-74
2021/10/18 11:36:41;;;;;;;19.42;11.65;;;13.30;99.90;;;;;;5056534;28;20234;-75
2021/10/18 11:39:11;;;;;;;19.38;10.98;;;13.30;99.90;;;;;;5056297;28;20310;-75
2021/10/18 11:42:07;;;;;;;22.05;12.05;;;13.30;99.90;;;;;;5056543;28;20203;-75
2021/10/18 11:44:53;;;;;;;18.85;11.35;;;13.20;99.90;;;;;;5056397;28;20258;-75
2021/10/18 11:47:38;;;;;;;17.77;11.98;;;13.30;99.90;;;;;;5056245;28;20249;-75
2021/10/18 11:50:16;;;;;;;17.88;12.18;;;13.40;99.90;;;;;;5056214;28;20310;-75
2021/10/18 11:52:46;;;;;;;18.95;12.68;;;13.70;99.90;;;;;;5056280;28;20310;-75
2021/10/18 11:55:15;;;;;;;18.70;11.73;;;14.30;99.90;;;;;;5056416;28;20210;-75
2021/10/18 11:57:45;;;;;;;21.98;12.57;;;14.80;99.90;;;;;;5056233;28;20570;-75
2021/10/18 12:00:14;;;;;;;18.70;12.32;;;15.00;99.90;;;;;;5056530;28;20221;-76
2021/10/18 12:02:45;;;;;;;18.98;12.02;;;15.00;99.90;;;;;;5055900;28;20276;-76
2021/10/18 12:05:12;;;;;;;21.00;12.00;;;15.10;99.90;;;;;;5056447;28;20312;-76
2021/10/18 12:07:40;;;;;;;17.25;11.93;;;15.10;99.90;;;;;;5056669;28;20214;-75
2021/10/18 12:10:16;;;;;;;18.73;11.32;;;14.90;99.90;;;;;;5056901;28;20224;-75
2021/10/18 12:13:03;;;;;;;15.90;10.85;;;14.80;99.90;;;;;;5055625;28;20596;-75
2021/10/18 12:15:31;;;;;;;15.80;10.95;;;15.00;99.90;;;;;;5056089;28;20201;-75
2021/10/18 12:17:58;;;;;;;17.75;10.30;;;15.40;99.90;;;;;;5055388;28;20217;-75
2021/10/18 12:20:25;;;;;;;16.27;10.45;;;15.70;99.90;;;;;;5055736;28;20202;-76
2021/10/18 12:23:00;;;;;;;13.52;9.93;;;15.90;99.90;;;;;;5055549;28;20199;-75
2021/10/18 12:25:27;;;;;;;16.75;10.00;;;16.50;99.90;;;;;;5055380;28;20214;-76
2021/10/18 12:27:54;;;;;;;16.77;11.10;;;17.10;99.90;;;;;;5056081;28;20203;-76
2021/10/18 12:30:42;;;;;;;15.73;10.27;;;17.50;99.90;;;;;;5055903;28;20204;-76
2021/10/18 12:33:11;;;;;;;14.63;10.10;;;17.90;98.90;;;;;;5055698;28;20485;-75
2021/10/18 12:35:38;;;;;;;13.52;9.98;;;17.80;98.10;;;;;;5055492;28;20472;-75
2021/10/18 12:38:10;;;;;;;14.10;10.18;;;17.60;98.00;;;;;;5055198;28;20322;-76
2021/10/18 12:40:37;;;;;;;15.77;11.30;;;17.40;98.20;;;;;;5055326;28;20214;-75
2021/10/18 12:43:04;;;;;;;17.08;10.90;;;17.00;98.00;;;;;;5054970;28;20286;-75
2021/10/18 12:45:35;;;;;;;15.10;10.05;;;16.70;98.60;;;;;;5055232;28;20298;-75
2021/10/18 12:48:04;;;;;;;13.68;9.77;;;16.40;99.20;;;;;;5055163;28;20207;-75
2021/10/18 12:50:36;;;;;;;17.05;10.90;;;16.30;99.70;;;;;;5054859;28;20295;-75
2021/10/18 12:53:10;;;;;;;14.77;10.45;;;16.10;99.90;;;;;;5054826;28;20229;-75
2021/10/18 12:55:38;;;;;;;18.25;12.10;;;16.00;99.90;;;;;;5055205;28;20217;-76
2021/10/18 12:58:06;;;;;;;13.07;8.77;;;15.90;99.90;;;;;;5055236;28;20234;-76
2021/10/18 13:00:35;;;;;;;15.65;10.88;;;15.60;99.90;;;;;;5054864;28;20296;-76
2021/10/18 13:03:19;;;;;;;15.65;10.45;;;15.60;99.90;;;;;;5054528;28;20208;-75
2021/10/18 13:05:48;;;;;;;15.80;10.57;;;15.60;99.90;;;;;;5054864;28;20742;-75
2021/10/18 13:08:16;;;;;;;12.55;9.25;;;15.50;99.90;;;;;;5054995;28;20227;-75
2021/10/18 13:10:45;;;;;;;15.98;10.48;;;15.40;99.90;;;;;;5054874;28;20210;-75
2021/10/18 13:13:14;;;;;;;13.68;9.52;;;15.30;99.90;;;;;;5055186;28;20217;-75
2021/10/18 13:15:44;;;;;;;14.52;10.05;;;15.20;99.90;;;;;;5055134;28;20205;-75
2021/10/18 13:18:12;;;;;;;15.75;10.45;;;15.20;99.90;;;;;;5054940;28;20247;-75
2021/10/18 13:20:42;;;;;;;14.82;10.32;;;15.20;99.90;;;;;;5055453;28;20205;-75
2021/10/18 13:23:10;;;;;;;18.05;11.00;;;15.20;99.90;;;;;;5054573;28;20202;-75
2021/10/18 13:25:38;;;;;;;18.05;11.75;;;15.10;99.90;;;;;;5054761;28;20221;-75
2021/10/18 13:28:08;;;;;;;14.57;10.50;;;15.00;99.90;;;;;;5055315;28;20240;-75
2021/10/18 13:30:35;;;;;;;16.48;10.63;;;15.00;99.90;;;;;;5054769;28;20564;-76
2021/10/18 13:33:03;;;;;;;15.52;10.18;;;15.00;99.90;;;;;;5055157;28;20778;-75
2021/10/18 13:35:31;;;;;;;14.23;9.48;;;15.10;99.90;;;;;;5055451;28;20203;-75
2021/10/18 13:38:00;;;;;;;13.13;10.20;;;15.10;99.90;;;;;;5054901;28;20218;-75
2021/10/18 13:40:28;;;;;;;13.73;10.00;;;15.10;99.90;;;;;;5054993;28;20299;-75
2021/10/18 13:42:56;;;;;;;13.73;9.48;;;15.10;99.90;;;;;;5054635;28;20780;-74
2021/10/18 13:45:24;;;;;;;14.85;9.73;;;15.10;99.90;;;;;;5054240;28;20566;-75
2021/10/18 13:47:52;;;;;;;15.50;10.02;;;15.10;99.90;;;;;;5054128;28;20300;-75
2021/10/18 13:50:20;;;;;;;14.40;10.18;;;15.10;99.90;;;;;;5054320;28;20574;-75
2021/10/18 13:52:52;;;;;;;14.10;10.90;;;15.10;99.90;;;;;;5053606;28;20206;-74
2021/10/18 13:55:21;;;;;;;14.73;10.45;;;15.10;99.90;;;;;;5053865;28;20687;-75